createdAt,value
2023-02-17T00:00:13.608Z,67985.41
2023-02-17T00:02:40.805Z,67984.69
2023-02-17T00:05:11.470Z,67987.50
2023-02-17T00:07:39.387Z,67987.13
2023-02-17T00:10:07.039Z,67989.56
2023-02-17T00:12:34.433Z,67984.13
2023-02-17T00:15:02.974Z,67987.13
2023-02-17T00:17:39.690Z,67983.53
2023-02-17T00:20:11.090Z,67993.16
2023-02-17T00:22:41.298Z,67989.75
2023-02-17T00:25:08.919Z,67998.41
2023-02-17T00:27:41.038Z,67989.97
2023-02-17T00:30:09.404Z,67978.66
2023-02-17T00:32:36.852Z,67981.50
2023-02-17T00:35:09.270Z,67981.50
2023-02-17T00:37:36.410Z,67982.63
2023-02-17T00:40:03.537Z,67982.22
2023-02-17T00:42:30.572Z,67982.44
2023-02-17T00:45:04.540Z,67994.66
2023-02-17T00:47:36.846Z,67992.38
2023-02-17T00:50:04.474Z,67980.91
2023-02-17T00:52:32.288Z,67984.69
2023-02-17T00:55:03.850Z,67992.97
2023-02-17T00:57:32.521Z,67993.75
2023-02-17T01:00:01.814Z,67989.75
2023-02-17T01:02:29.009Z,67988.44
2023-02-17T01:04:56.110Z,67978.66
2023-02-17T01:07:23.402Z,67978.47
2023-02-17T01:09:51.001Z,67981.28
2023-02-17T01:12:18.150Z,67978.09
2023-02-17T01:14:49.412Z,67983.53
2023-02-17T01:17:17.695Z,67977.88
2023-02-17T01:19:45.017Z,67977.88
2023-02-17T01:22:19.578Z,67985.25
2023-02-17T01:24:48.139Z,67985.81
2023-02-17T01:27:21.323Z,67980.72
2023-02-17T01:29:53.571Z,67986.19
2023-02-17T01:32:21.255Z,67982.63
2023-02-17T01:34:50.232Z,67982.22
2023-02-17T01:37:17.622Z,67983.53
2023-02-17T01:39:44.710Z,67984.47
2023-02-17T01:42:16.852Z,67979.59
2023-02-17T01:45:18.109Z,67983.91
2023-02-17T01:48:00.720Z,67984.47
2023-02-17T01:50:40.304Z,67980.88
2023-02-17T01:53:11.461Z,67974.69
2023-02-17T01:55:47.819Z,67976.19
2023-02-17T01:58:22.795Z,67974.13
2023-02-17T02:00:54.631Z,67977.16
2023-02-17T02:03:33.684Z,67988.81
2023-02-17T02:06:22.183Z,67985.63
2023-02-17T02:09:05.331Z,67982.63
2023-02-17T02:11:34.637Z,67983.34
2023-02-17T02:14:03.247Z,67982.78
2023-02-17T02:16:49.809Z,67982.97
2023-02-17T02:19:25.690Z,67982.03
2023-02-17T02:22:23.018Z,67976.56
2023-02-17T02:25:14.468Z,67976.19
2023-02-17T02:28:07.433Z,67983.91
2023-02-17T02:31:02.095Z,67984.88
2023-02-17T02:33:55.160Z,67996.00
2023-02-17T02:36:41.629Z,67988.63
2023-02-17T02:39:19.407Z,67997.13
2023-02-17T02:41:51.172Z,67998.63
2023-02-17T02:44:21.511Z,67996.00
2023-02-17T02:46:58.702Z,67995.41
2023-02-17T02:49:30.229Z,67993.38
2023-02-17T02:52:05.876Z,67991.84
2023-02-17T02:55:14.841Z,67987.13
2023-02-17T02:57:59.083Z,67983.91
2023-02-17T03:00:50.118Z,67990.13
2023-02-17T03:03:35.494Z,67987.50
2023-02-17T03:06:20.189Z,67965.50
2023-02-17T03:08:54.765Z,67983.38
2023-02-17T03:11:36.707Z,67972.22
2023-02-17T03:14:17.054Z,67975.63
2023-02-17T03:16:48.004Z,67981.84
2023-02-17T03:19:17.965Z,67980.72
2023-02-17T03:21:59.787Z,67978.47
2023-02-17T03:24:27.349Z,67981.09
2023-02-17T03:26:56.848Z,67982.97
2023-02-17T03:29:25.729Z,67983.53
2023-02-17T03:31:55.746Z,67984.88
2023-02-17T03:34:23.119Z,67984.31
2023-02-17T03:36:52.095Z,67986.19
2023-02-17T03:39:19.340Z,67982.97
2023-02-17T03:41:46.555Z,67990.13
2023-02-17T03:44:13.720Z,67994.47
2023-02-17T03:46:44.372Z,68001.44
2023-02-17T03:49:13.038Z,68005.41
2023-02-17T03:51:40.654Z,68001.44
2023-02-17T03:54:11.392Z,68000.13
2023-02-17T03:56:41.664Z,67987.13
2023-02-17T03:59:09.243Z,67985.25
2023-02-17T04:01:39.964Z,67982.44
2023-02-17T04:04:10.701Z,67968.13
2023-02-17T04:06:37.956Z,67968.84
2023-02-17T04:09:08.148Z,67964.91
2023-02-17T04:11:35.422Z,67963.19
2023-02-17T04:14:03.176Z,67941.53
2023-02-17T04:16:39.472Z,67927.56
2023-02-17T04:19:07.579Z,67914.22
2023-02-17T04:21:35.357Z,67894.81
2023-02-17T04:24:09.820Z,67885.19
2023-02-17T04:26:37.411Z,67883.31
2023-02-17T04:29:06.726Z,67865.06
2023-02-17T04:31:38.242Z,67863.56
2023-02-17T04:34:14.276Z,67863.75
2023-02-17T04:36:46.469Z,67858.28
2023-02-17T04:39:13.841Z,67861.09
2023-02-17T04:41:43.274Z,67861.09
2023-02-17T04:44:13.488Z,67863.34
2023-02-17T04:46:40.593Z,67858.84
2023-02-17T04:49:10.665Z,67863.94
2023-02-17T04:51:37.785Z,67868.25
2023-02-17T04:54:05.211Z,67863.19
2023-02-17T04:56:35.007Z,67863.75
2023-02-17T04:59:04.666Z,67869.75
2023-02-17T05:01:31.785Z,67863.38
2023-02-17T05:03:58.881Z,67868.25
2023-02-17T05:06:28.308Z,67867.69
2023-02-17T05:09:00.201Z,67871.66
2023-02-17T05:11:28.826Z,67877.28
2023-02-17T05:13:55.873Z,67885.19
2023-02-17T05:16:25.312Z,67886.53
2023-02-17T05:18:52.420Z,67891.63
2023-02-17T05:21:19.497Z,67898.75
2023-02-17T05:23:46.574Z,67891.06
2023-02-17T05:26:16.246Z,67894.25
2023-02-17T05:28:43.377Z,67890.66
2023-02-17T05:31:10.882Z,67894.25
2023-02-17T05:33:38.049Z,67896.50
2023-02-17T05:36:07.817Z,67895.38
2023-02-17T05:38:35.708Z,67891.41
2023-02-17T05:41:05.884Z,67892.75
2023-02-17T05:43:33.740Z,67897.06
2023-02-17T05:46:05.518Z,67898.75
2023-02-17T05:48:33.525Z,67898.75
2023-02-17T05:51:02.254Z,67892.75
2023-02-17T05:53:32.478Z,67900.84
2023-02-17T05:56:03.132Z,67901.59
2023-02-17T05:58:33.848Z,67895.56
2023-02-17T06:01:09.229Z,67895.19
2023-02-17T06:03:38.008Z,67896.31
2023-02-17T06:06:06.273Z,67898.56
2023-02-17T06:08:40.127Z,67910.06
2023-02-17T06:11:07.215Z,67917.41
2023-02-17T06:13:34.275Z,67911.97
2023-02-17T06:16:01.574Z,67915.16
2023-02-17T06:18:29.061Z,67922.50
2023-02-17T06:20:58.521Z,67923.84
2023-02-17T06:23:33.510Z,67925.88
2023-02-17T06:26:00.559Z,67934.94
2023-02-17T06:28:27.641Z,67937.78
2023-02-17T06:30:56.216Z,67939.09
2023-02-17T06:33:23.321Z,67934.78
2023-02-17T06:35:55.295Z,67942.28
2023-02-17T06:38:22.660Z,67948.66
2023-02-17T06:40:50.316Z,67943.41
2023-02-17T06:43:17.345Z,67941.16
2023-02-17T06:45:44.568Z,67948.50
2023-02-17T06:48:11.955Z,67955.84
2023-02-17T06:50:39.055Z,67957.34
2023-02-17T06:53:08.572Z,67952.44
2023-02-17T06:55:37.242Z,67960.19
2023-02-17T06:58:04.701Z,67954.91
2023-02-17T07:00:34.651Z,67958.31
2023-02-17T07:03:01.828Z,67960.56
2023-02-17T07:05:35.967Z,67966.94
2023-02-17T07:08:04.689Z,67970.56
2023-02-17T07:10:32.225Z,67945.19
2023-02-17T07:12:59.450Z,67962.28
2023-02-17T07:15:28.424Z,67969.41
2023-02-17T07:17:59.168Z,67970.75
2023-02-17T07:20:26.282Z,67969.97
2023-02-17T07:22:53.384Z,67970.56
2023-02-17T07:25:22.807Z,67969.97
2023-02-17T07:27:52.996Z,67976.78
2023-02-17T07:30:22.882Z,67971.31
2023-02-17T07:32:52.549Z,67978.25
2023-02-17T07:35:23.361Z,67975.63
2023-02-17T07:37:56.576Z,67976.78
2023-02-17T07:40:24.669Z,67981.66
2023-02-17T07:42:55.229Z,67979.97
2023-02-17T07:45:25.425Z,67976.59
2023-02-17T07:47:52.486Z,67987.31
2023-02-17T07:50:21.774Z,67988.63
2023-02-17T07:52:57.596Z,67992.78
2023-02-17T07:55:26.127Z,67995.06
2023-02-17T07:57:53.264Z,67997.88
2023-02-17T08:00:24.436Z,67999.94
2023-02-17T08:02:56.820Z,67999.03
2023-02-17T08:05:26.700Z,68003.69
2023-02-17T08:08:23.589Z,67999.94
2023-02-17T08:11:12.163Z,67999.94
2023-02-17T08:13:39.508Z,68001.28
2023-02-17T08:16:09.961Z,67997.88
2023-02-17T08:18:37.259Z,67998.81
2023-02-17T08:21:05.663Z,68001.06
2023-02-17T08:23:38.530Z,68003.91
2023-02-17T08:26:06.503Z,68007.88
2023-02-17T08:28:36.833Z,68006.34
2023-02-17T08:31:04.033Z,68014.47
2023-02-17T08:33:38.973Z,68015.41
2023-02-17T08:36:09.565Z,68016.34
2023-02-17T08:38:41.004Z,68019.19
2023-02-17T08:41:20.037Z,68015.78
2023-02-17T08:43:47.990Z,68023.50
2023-02-17T08:46:16.233Z,68021.81
2023-02-17T08:48:44.246Z,68019.75
2023-02-17T08:51:24.276Z,68019.19
2023-02-17T08:53:54.491Z,68018.25
2023-02-17T08:56:25.627Z,68029.91
2023-02-17T08:58:53.816Z,68040.09
2023-02-17T09:01:22.009Z,68039.91
2023-02-17T09:03:49.968Z,68016.97
2023-02-17T09:06:18.313Z,68040.66
2023-02-17T09:08:48.628Z,68053.69
2023-02-17T09:11:17.245Z,68051.41
2023-02-17T09:13:44.916Z,68055.38
2023-02-17T09:16:14.509Z,68058.19
2023-02-17T09:18:42.185Z,68066.69
2023-02-17T09:21:13.743Z,68069.69
2023-02-17T09:23:44.330Z,68076.31
2023-02-17T09:26:13.844Z,68088.75
2023-02-17T09:28:49.104Z,68091.19
2023-02-17T09:31:29.163Z,68084.78
2023-02-17T09:33:56.873Z,68097.63
2023-02-17T09:36:38.203Z,68108.00
2023-02-17T09:39:11.511Z,68112.72
2023-02-17T09:42:28.240Z,68123.84
2023-02-17T09:45:08.480Z,68127.44
2023-02-17T09:47:45.003Z,68138.00
2023-02-17T09:50:23.494Z,68157.63
2023-02-17T09:53:05.687Z,68160.09
2023-02-17T09:55:51.437Z,68163.69
2023-02-17T09:58:42.449Z,68179.13
2023-02-17T10:01:16.165Z,68177.06
2023-02-17T10:03:59.291Z,68173.69
2023-02-17T10:06:26.444Z,68170.47
2023-02-17T10:09:06.531Z,68171.97
2023-02-17T10:11:35.440Z,68174.25
2023-02-17T10:14:17.541Z,68178.75
2023-02-17T10:17:03.421Z,68179.91
2023-02-17T10:19:36.376Z,68189.53
2023-02-17T10:22:24.809Z,68183.50
2023-02-17T10:24:51.909Z,68187.28
2023-02-17T10:28:07.927Z,68201.97
2023-02-17T10:31:05.757Z,68212.19
2023-02-17T10:33:38.676Z,68225.19
2023-02-17T10:37:02.983Z,68214.63
2023-02-17T10:39:57.120Z,68211.81
2023-02-17T10:42:56.010Z,68223.69
2023-02-17T10:45:31.807Z,68234.81
2023-02-17T10:48:13.586Z,68242.75
2023-02-17T10:50:42.720Z,68244.84
2023-02-17T10:53:35.299Z,68240.50
2023-02-17T10:56:17.240Z,68235.97
2023-02-17T10:58:58.728Z,68226.34
2023-02-17T11:01:39.664Z,68229.38
2023-02-17T11:04:13.652Z,68212.75
2023-02-17T11:06:53.562Z,68209.91
2023-02-17T11:09:32.678Z,68204.81
2023-02-17T11:12:10.824Z,68209.91
2023-02-17T11:14:48.455Z,68198.22
2023-02-17T11:17:34.406Z,68185.94
2023-02-17T11:20:16.840Z,68181.78
2023-02-17T11:23:05.261Z,68186.13
2023-02-17T11:25:38.490Z,68183.31
2023-02-17T11:28:13.215Z,68185.00
2023-02-17T11:30:49.221Z,68188.38
2023-02-17T11:33:31.771Z,68195.00
2023-02-17T11:36:00.216Z,68208.97
2023-02-17T11:38:50.000Z,68217.09
2023-02-17T11:41:17.829Z,68217.84
2023-02-17T11:43:57.238Z,68222.00
2023-02-17T11:46:31.646Z,68228.03
2023-02-17T11:49:27.761Z,68237.84
2023-02-17T11:52:10.212Z,68232.00
2023-02-17T11:55:01.547Z,68247.09
2023-02-17T11:57:45.837Z,68249.56
2023-02-17T12:00:22.700Z,68246.72
2023-02-17T12:03:05.032Z,68245.97
2023-02-17T12:06:14.557Z,68253.91
2023-02-17T12:09:32.170Z,68256.00
2023-02-17T12:12:31.512Z,68269.94
2023-02-17T12:15:27.343Z,68262.59
2023-02-17T12:18:24.386Z,68279.56
2023-02-17T12:21:05.758Z,68282.81
2023-02-17T12:24:05.138Z,68292.44
2023-02-17T12:26:55.644Z,68292.06
2023-02-17T12:29:41.543Z,68298.84
2023-02-17T12:32:31.435Z,68303.38
2023-02-17T12:35:22.362Z,68305.66
2023-02-17T12:38:13.447Z,68308.13
2023-02-17T12:41:07.767Z,68321.91
2023-02-17T12:43:49.440Z,68325.47
2023-02-17T12:46:24.359Z,68325.31
2023-02-17T12:48:55.709Z,68326.28
2023-02-17T12:51:34.563Z,68322.47
2023-02-17T12:54:43.509Z,68330.06
2023-02-17T12:57:15.305Z,68336.09
2023-02-17T12:59:52.183Z,68335.34
2023-02-17T13:02:26.182Z,68341.97
2023-02-17T13:05:02.110Z,68351.97
2023-02-17T13:07:49.735Z,68355.75
2023-02-17T13:10:25.654Z,68358.94
2023-02-17T13:13:09.526Z,68355.75
2023-02-17T13:15:45.703Z,68366.31
2023-02-17T13:18:31.427Z,68335.72
2023-02-17T13:21:01.519Z,68360.09
2023-02-17T13:23:59.672Z,68345.34
2023-02-17T13:26:33.134Z,68371.44
2023-02-17T13:29:34.649Z,68380.50
2023-02-17T13:32:10.800Z,68365.75
2023-02-17T13:34:43.595Z,68386.75
2023-02-17T13:37:26.612Z,68378.22
2023-02-17T13:39:53.930Z,68378.44
2023-02-17T13:42:42.231Z,68364.25
2023-02-17T13:45:25.518Z,68356.31
2023-02-17T13:47:59.361Z,68361.41
2023-02-17T13:50:34.334Z,68360.09
2023-02-17T13:53:08.059Z,68340.25
2023-02-17T13:55:36.473Z,68365.19
2023-02-17T13:58:03.874Z,68367.47
2023-02-17T14:00:35.113Z,68366.31
2023-02-17T14:03:20.464Z,68363.66
2023-02-17T14:08:37.255Z,68371.44
2023-02-17T14:11:20.256Z,68372.00
2023-02-17T14:13:49.957Z,68374.63
2023-02-17T14:16:40.693Z,68370.50
2023-02-17T14:19:13.736Z,68375.97
2023-02-17T14:21:46.592Z,68374.47
2023-02-17T14:24:42.979Z,68387.31
2023-02-17T14:27:14.159Z,68387.31
2023-02-17T14:29:50.995Z,68387.88
2023-02-17T14:32:43.910Z,68390.72
2023-02-17T14:35:17.916Z,68369.72
2023-02-17T14:37:45.037Z,68392.59
2023-02-17T14:40:23.323Z,68389.19
2023-02-17T14:42:51.189Z,68397.31
2023-02-17T14:45:21.598Z,68395.25
2023-02-17T14:47:48.678Z,68396.94
2023-02-17T14:50:19.322Z,68396.00
2023-02-17T14:52:52.541Z,68401.47
2023-02-17T14:55:33.677Z,68402.44
2023-02-17T14:58:23.585Z,68396.94
2023-02-17T15:00:51.670Z,68395.81
2023-02-17T15:03:19.160Z,68394.69
2023-02-17T15:05:50.613Z,68392.03
2023-02-17T15:08:29.591Z,68404.50
2023-02-17T15:10:56.735Z,68396.56
2023-02-17T15:13:24.029Z,68409.44
2023-02-17T15:15:51.364Z,68412.81
2023-02-17T15:18:19.674Z,68404.88
2023-02-17T15:20:53.024Z,68398.81
2023-02-17T15:23:23.866Z,68396.00
2023-02-17T15:25:51.158Z,68389.38
2023-02-17T15:28:22.582Z,68385.59
2023-02-17T15:30:53.766Z,68384.47
2023-02-17T15:33:24.972Z,68382.78
2023-02-17T15:35:54.062Z,68387.88
2023-02-17T15:38:22.606Z,68386.34
2023-02-17T15:40:50.017Z,68381.25
2023-02-17T15:43:21.852Z,68381.63
2023-02-17T15:45:49.242Z,68383.53
2023-02-17T15:48:22.531Z,68383.91
2023-02-17T15:50:49.602Z,68372.56
2023-02-17T15:53:16.839Z,68372.56
2023-02-17T15:55:44.099Z,68379.19
2023-02-17T15:58:16.721Z,68367.47
2023-02-17T16:00:50.060Z,68363.28
2023-02-17T16:03:21.065Z,68348.75
2023-02-17T16:05:51.190Z,68366.53
2023-02-17T16:08:22.158Z,68346.47
2023-02-17T16:10:50.285Z,68374.25
2023-02-17T16:13:19.695Z,68372.00
2023-02-17T16:15:53.108Z,68373.50
2023-02-17T16:18:24.241Z,68354.25
2023-02-17T16:20:55.628Z,68362.94
2023-02-17T16:23:22.818Z,68357.44
2023-02-17T16:25:53.060Z,68351.97
2023-02-17T16:28:22.029Z,68352.16
2023-02-17T16:30:49.894Z,68365.00
2023-02-17T16:33:21.922Z,68365.19
2023-02-17T16:35:50.900Z,68369.34
2023-02-17T16:38:23.657Z,68370.28
2023-02-17T16:40:55.800Z,68377.66
2023-02-17T16:43:27.669Z,68375.41
2023-02-17T16:46:01.798Z,68371.81
2023-02-17T16:48:33.967Z,68365.19
2023-02-17T16:51:01.473Z,68366.31
2023-02-17T16:53:31.395Z,68358.38
2023-02-17T16:55:58.939Z,68364.44
2023-02-17T16:58:26.657Z,68358.38
2023-02-17T17:00:55.987Z,68361.22
2023-02-17T17:03:26.875Z,68358.75
2023-02-17T17:05:54.088Z,68362.56
2023-02-17T17:08:22.138Z,68361.78
2023-02-17T17:10:49.831Z,68365.94
2023-02-17T17:13:17.121Z,68368.03
2023-02-17T17:15:45.334Z,68381.63
2023-02-17T17:18:24.185Z,68382.94
2023-02-17T17:20:51.294Z,68387.31
2023-02-17T17:23:19.157Z,68391.09
2023-02-17T17:25:47.271Z,68405.47
2023-02-17T17:28:17.846Z,68408.84
2023-02-17T17:30:51.125Z,68416.22
2023-02-17T17:33:18.256Z,68415.09
2023-02-17T17:35:52.808Z,68417.16
2023-02-17T17:38:19.865Z,68408.28
2023-02-17T17:41:01.161Z,68418.50
2023-02-17T17:43:28.263Z,68416.78
2023-02-17T17:46:01.102Z,68427.56
2023-02-17T17:48:31.483Z,68422.84
2023-02-17T17:50:59.103Z,68420.75
2023-02-17T17:53:33.862Z,68418.09
2023-02-17T17:56:00.944Z,68420.19
2023-02-17T17:58:28.800Z,68419.63
2023-02-17T18:00:55.926Z,68415.09
2023-02-17T18:03:23.173Z,68405.06
2023-02-17T18:05:53.557Z,68393.53
2023-02-17T18:08:20.704Z,68354.97
2023-02-17T18:10:47.829Z,68311.88
2023-02-17T18:13:35.803Z,68271.47
2023-02-17T18:16:02.990Z,68243.13
2023-02-17T18:18:33.595Z,68223.88
2023-02-17T18:21:00.751Z,68206.69
2023-02-17T18:23:39.945Z,68205.19
2023-02-17T18:26:12.061Z,68174.84
2023-02-17T18:28:40.430Z,68194.06
2023-02-17T18:31:08.541Z,68161.81
2023-02-17T18:33:38.847Z,68183.09
2023-02-17T18:36:08.692Z,68181.03
2023-02-17T18:38:36.221Z,68177.25
2023-02-17T18:41:04.590Z,68173.09
2023-02-17T18:43:32.585Z,68147.09
2023-02-17T18:46:00.086Z,68168.56
2023-02-17T18:48:35.644Z,68166.31
2023-02-17T18:51:08.287Z,68170.66
2023-02-17T18:53:35.984Z,68165.38
2023-02-17T18:56:03.554Z,68171.59
2023-02-17T18:58:30.605Z,68178.56
2023-02-17T19:01:09.387Z,68180.47
2023-02-17T19:03:36.475Z,68180.66
2023-02-17T19:06:12.198Z,68165.22
2023-02-17T19:08:40.782Z,68191.78
2023-02-17T19:11:10.006Z,68204.06
2023-02-17T19:13:37.584Z,68208.41
2023-02-17T19:16:12.111Z,68216.72
2023-02-17T19:18:41.880Z,68216.72
2023-02-17T19:21:13.201Z,68216.50
2023-02-17T19:23:41.785Z,68202.94
2023-02-17T19:26:12.796Z,68210.28
2023-02-17T19:28:41.412Z,68216.31
2023-02-17T19:31:12.926Z,68215.38
2023-02-17T19:33:40.314Z,68209.72
2023-02-17T19:36:12.830Z,68214.06
2023-02-17T19:38:40.044Z,68221.81
2023-02-17T19:41:09.043Z,68221.22
2023-02-17T19:43:39.373Z,68226.72
2023-02-17T19:46:18.115Z,68234.25
2023-02-17T19:48:45.894Z,68243.50
2023-02-17T19:51:14.150Z,68243.34
2023-02-17T19:53:43.094Z,68242.75
2023-02-17T19:56:25.203Z,68248.63
2023-02-17T19:59:04.233Z,68246.91
2023-02-17T20:01:33.529Z,68243.91
2023-02-17T20:04:05.080Z,68235.22
2023-02-17T20:06:40.846Z,68242.41
2023-02-17T20:09:15.437Z,68247.69
2023-02-17T20:11:47.713Z,68246.16
2023-02-17T20:14:15.110Z,68248.41
2023-02-17T20:16:42.239Z,68245.59
2023-02-17T20:19:10.244Z,68246.16
2023-02-17T20:21:40.639Z,68248.06
2023-02-17T20:24:07.747Z,68240.69
2023-02-17T20:26:40.423Z,68243.34
2023-02-17T20:29:08.339Z,68244.06
2023-02-17T20:31:36.122Z,68244.84
2023-02-17T20:34:05.257Z,68242.38
2023-02-17T20:36:34.982Z,68227.66
2023-02-17T20:39:02.886Z,68237.09
2023-02-17T20:41:30.015Z,68237.66
2023-02-17T20:44:01.566Z,68238.41
2023-02-17T20:46:29.542Z,68222.38
2023-02-17T20:49:01.302Z,68216.16
2023-02-17T20:51:37.750Z,68220.50
2023-02-17T20:54:05.077Z,68218.03
2023-02-17T20:56:37.796Z,68204.81
2023-02-17T20:59:11.841Z,68201.97
2023-02-17T21:01:40.046Z,68203.88
2023-02-17T21:04:10.753Z,68188.97
2023-02-17T21:06:43.111Z,68183.31
2023-02-17T21:09:16.185Z,68153.31
2023-02-17T21:11:45.539Z,68163.84
2023-02-17T21:14:13.203Z,68171.97
2023-02-17T21:16:45.153Z,68168.41
2023-02-17T21:19:17.713Z,68172.53
2023-02-17T21:21:51.512Z,68187.66
2023-02-17T21:24:28.038Z,68193.09
2023-02-17T21:26:55.073Z,68184.03
2023-02-17T21:29:22.347Z,68199.72
2023-02-17T21:31:49.816Z,68189.16
2023-02-17T21:34:16.980Z,68195.75
2023-02-17T21:36:44.367Z,68195.94
2023-02-17T21:39:11.727Z,68199.16
2023-02-17T21:41:45.179Z,68212.75
2023-02-17T21:44:31.692Z,68207.63
2023-02-17T21:47:04.324Z,68202.75
2023-02-17T21:49:34.040Z,68197.44
2023-02-17T21:52:07.136Z,68181.22
2023-02-17T21:54:34.215Z,68169.72
2023-02-17T21:57:06.240Z,68142.16
2023-02-17T21:59:33.447Z,68120.84
2023-02-17T22:02:00.534Z,68088.75
2023-02-17T22:04:36.806Z,68076.31
2023-02-17T22:07:04.041Z,68063.09
2023-02-17T22:09:31.087Z,68038.97
2023-02-17T22:11:58.169Z,68014.47
2023-02-17T22:14:28.593Z,68003.53
2023-02-17T22:16:58.272Z,67994.84
2023-02-17T22:19:25.727Z,67993.91
2023-02-17T22:21:55.295Z,67983.53
2023-02-17T22:24:27.373Z,67982.03
2023-02-17T22:26:56.270Z,67966.78
2023-02-17T22:29:26.271Z,67973.19
2023-02-17T22:32:00.474Z,67969.41
2023-02-17T22:34:28.718Z,67975.63
2023-02-17T22:36:58.699Z,67973.19
2023-02-17T22:39:26.278Z,67971.69
2023-02-17T22:41:53.720Z,67971.13
2023-02-17T22:44:24.377Z,67964.31
2023-02-17T22:46:51.555Z,67969.41
2023-02-17T22:49:18.759Z,67967.16
2023-02-17T22:51:49.050Z,67965.84
2023-02-17T22:54:16.150Z,67960.19
2023-02-17T22:56:43.346Z,67959.81
2023-02-17T22:59:10.621Z,67963.19
2023-02-17T23:01:40.632Z,67967.16
2023-02-17T23:04:16.647Z,67972.81
2023-02-17T23:06:48.604Z,67984.47
2023-02-17T23:09:18.857Z,67978.25
2023-02-17T23:11:50.159Z,67978.47
2023-02-17T23:14:32.303Z,67992.59
2023-02-17T23:17:04.910Z,67997.69
2023-02-17T23:19:32.564Z,67995.63
2023-02-17T23:22:03.758Z,68002.22
2023-02-17T23:24:33.123Z,68001.06
2023-02-17T23:27:00.818Z,68001.44
2023-02-17T23:29:35.813Z,68002.00
2023-02-17T23:32:04.448Z,68005.41
2023-02-17T23:34:31.624Z,68011.06
2023-02-17T23:36:58.927Z,68000.13
2023-02-17T23:39:29.284Z,68002.59
2023-02-17T23:41:56.499Z,67996.00
2023-02-17T23:44:25.482Z,67997.69
2023-02-17T23:46:59.307Z,67997.47
2023-02-17T23:49:32.551Z,68000.50
2023-02-17T23:52:02.829Z,67991.47
2023-02-17T23:54:32.464Z,67995.22
2023-02-17T23:57:03.197Z,67989.00
2023-02-17T23:59:30.744Z,67987.88
